createdAt,value
2018-06-28T00:01:29.892Z,77.00
2018-06-28T00:03:31.933Z,76.80
2018-06-28T00:05:34.006Z,76.10
2018-06-28T00:07:36.258Z,74.80
2018-06-28T00:09:38.305Z,74.80
2018-06-28T00:11:40.389Z,75.90
2018-06-28T00:13:42.493Z,74.80
2018-06-28T00:15:44.556Z,76.10
2018-06-28T00:17:46.617Z,81.00
2018-06-28T00:19:48.658Z,77.80
2018-06-28T00:21:50.701Z,81.10
2018-06-28T00:23:52.809Z,82.40
2018-06-28T00:25:54.852Z,82.50
2018-06-28T00:27:57.135Z,84.40
2018-06-28T00:29:59.222Z,83.80
2018-06-28T00:32:01.326Z,82.80
2018-06-28T00:34:03.473Z,84.20
2018-06-28T00:36:05.536Z,85.50
2018-06-28T00:38:07.584Z,86.30
2018-06-28T00:40:09.668Z,85.50
2018-06-28T00:42:11.769Z,84.40
2018-06-28T00:44:13.809Z,86.70
2018-06-28T00:46:15.877Z,85.00
2018-06-28T00:48:17.948Z,83.70
2018-06-28T00:50:19.997Z,83.00
2018-06-28T00:52:22.058Z,79.90
2018-06-28T00:54:24.081Z,79.00
2018-06-28T00:56:26.130Z,77.40
2018-06-28T00:58:28.207Z,75.70
2018-06-28T01:00:30.241Z,76.90
2018-06-28T01:02:32.301Z,76.50
2018-06-28T01:04:34.345Z,78.30
2018-06-28T01:06:36.418Z,78.50
2018-06-28T01:08:38.613Z,80.40
2018-06-28T01:10:40.674Z,81.50
2018-06-28T01:12:42.769Z,82.20
2018-06-28T01:14:44.794Z,82.30
2018-06-28T01:16:46.840Z,83.10
2018-06-28T01:18:48.864Z,83.10
2018-06-28T01:20:50.932Z,83.20
2018-06-28T01:22:52.965Z,84.20
2018-06-28T01:24:54.992Z,83.50
2018-06-28T01:26:57.032Z,84.40
2018-06-28T01:28:59.148Z,84.00
2018-06-28T01:31:01.172Z,82.80
2018-06-28T01:33:03.200Z,83.70
2018-06-28T01:35:05.248Z,84.40
2018-06-28T01:37:07.296Z,83.60
2018-06-28T01:39:10.580Z,84.60
2018-06-28T01:41:12.620Z,85.40
2018-06-28T01:43:30.169Z,87.30
2018-06-28T01:45:32.220Z,86.70
2018-06-28T01:47:34.299Z,85.30
2018-06-28T01:49:36.368Z,87.90
2018-06-28T01:51:38.429Z,87.60
2018-06-28T01:53:40.504Z,88.10
2018-06-28T01:55:42.564Z,89.20
2018-06-28T01:57:44.629Z,89.10
2018-06-28T01:59:46.723Z,89.60
2018-06-28T02:01:48.822Z,90.70
2018-06-28T02:03:50.849Z,90.70
2018-06-28T02:05:53.676Z,90.90
2018-06-28T02:07:55.740Z,90.50
2018-06-28T02:09:57.811Z,90.20
2018-06-28T02:11:59.877Z,89.40
2018-06-28T02:14:01.957Z,90.90
2018-06-28T02:16:04.020Z,91.40
2018-06-28T02:18:06.666Z,90.70
2018-06-28T02:20:08.684Z,91.70
2018-06-28T02:22:10.725Z,92.20
2018-06-28T02:24:12.747Z,92.10
2018-06-28T02:26:14.782Z,91.40
2018-06-28T02:28:16.844Z,91.30
2018-06-28T02:30:18.898Z,91.00
2018-06-28T02:32:20.930Z,90.90
2018-06-28T02:34:22.969Z,90.60
2018-06-28T02:36:25.056Z,91.90
2018-06-28T02:38:27.170Z,90.60
2018-06-28T02:40:29.217Z,92.20
2018-06-28T02:42:31.349Z,91.60
2018-06-28T02:44:33.392Z,91.20
2018-06-28T02:46:35.420Z,91.00
2018-06-28T02:48:37.491Z,90.60
2018-06-28T02:50:39.518Z,90.50
2018-06-28T02:52:41.561Z,90.20
2018-06-28T02:54:43.613Z,90.50
2018-06-28T02:56:45.664Z,89.60
2018-06-28T02:58:47.709Z,90.60
2018-06-28T03:00:49.769Z,90.40
2018-06-28T03:02:51.866Z,90.50
2018-06-28T03:04:54.072Z,90.50
2018-06-28T03:06:56.095Z,91.20
2018-06-28T03:08:58.097Z,91.40
2018-06-28T03:11:00.126Z,90.60
2018-06-28T03:13:02.182Z,91.50
2018-06-28T03:15:04.205Z,91.20
2018-06-28T03:17:06.502Z,91.10
2018-06-28T03:19:08.584Z,91.70
2018-06-28T03:21:10.729Z,92.30
2018-06-28T03:23:12.822Z,92.40
2018-06-28T03:25:14.904Z,92.60
2018-06-28T03:27:16.973Z,91.20
2018-06-28T03:29:19.038Z,91.40
2018-06-28T03:31:21.106Z,93.40
2018-06-28T03:33:23.175Z,92.90
2018-06-28T03:35:25.233Z,94.00
2018-06-28T03:37:27.285Z,93.40
2018-06-28T03:39:29.336Z,94.30
2018-06-28T03:41:31.405Z,93.00
2018-06-28T03:43:33.448Z,94.20
2018-06-28T03:45:35.512Z,94.80
2018-06-28T03:47:37.552Z,94.00
2018-06-28T03:49:39.629Z,94.90
2018-06-28T03:51:41.696Z,94.30
2018-06-28T03:53:43.740Z,94.20
2018-06-28T03:55:45.821Z,93.90
2018-06-28T03:57:47.856Z,94.60
2018-06-28T03:59:49.896Z,95.80
2018-06-28T04:01:52.014Z,95.80
2018-06-28T04:03:54.052Z,95.50
2018-06-28T04:05:56.096Z,95.00
2018-06-28T04:07:58.149Z,96.50
2018-06-28T04:10:00.196Z,95.90
2018-06-28T04:12:02.284Z,96.60
2018-06-28T04:14:04.394Z,96.40
2018-06-28T04:16:06.486Z,97.10
2018-06-28T04:18:08.510Z,97.40
2018-06-28T04:20:10.629Z,97.10
2018-06-28T04:22:17.256Z,98.30
2018-06-28T04:24:19.302Z,98.40
2018-06-28T04:26:21.356Z,98.80
2018-06-28T04:28:23.378Z,98.40
2018-06-28T04:30:25.376Z,98.50
2018-06-28T04:32:27.428Z,98.40
2018-06-28T04:34:29.486Z,98.60
2018-06-28T04:36:31.546Z,99.10
2018-06-28T04:38:33.617Z,99.50
2018-06-28T04:40:35.645Z,98.90
2018-06-28T04:42:37.685Z,99.00
2018-06-28T04:44:40.541Z,98.80
2018-06-28T04:46:42.608Z,98.30
2018-06-28T04:48:44.674Z,98.30
2018-06-28T04:50:46.737Z,97.90
2018-06-28T04:52:48.820Z,97.60
2018-06-28T04:54:50.862Z,97.60
2018-06-28T04:56:52.930Z,97.40
2018-06-28T04:58:55.008Z,97.70
2018-06-28T05:00:57.049Z,97.50
2018-06-28T05:02:59.121Z,97.80
2018-06-28T05:05:01.179Z,97.60
2018-06-28T05:07:03.265Z,97.50
2018-06-28T05:09:06.859Z,97.40
2018-06-28T05:11:09.327Z,96.70
2018-06-28T05:15:13.508Z,96.80
2018-06-28T05:17:15.581Z,96.20
2018-06-28T05:19:17.621Z,95.90
2018-06-28T05:21:19.700Z,95.50
2018-06-28T05:23:21.767Z,95.50
2018-06-28T05:25:23.816Z,95.00
2018-06-28T05:27:25.886Z,94.30
2018-06-28T05:29:27.968Z,94.90
2018-06-28T05:31:29.994Z,94.60
2018-06-28T05:33:32.078Z,94.60
2018-06-28T05:35:34.142Z,93.40
2018-06-28T05:37:36.221Z,94.10
2018-06-28T05:39:38.282Z,94.10
2018-06-28T05:41:40.318Z,93.40
2018-06-28T05:43:42.393Z,93.50
2018-06-28T05:45:44.408Z,93.50
2018-06-28T05:47:46.444Z,92.70
2018-06-28T05:49:48.466Z,91.40
2018-06-28T05:51:50.477Z,91.80
2018-06-28T05:53:52.509Z,91.60
2018-06-28T05:55:54.524Z,90.20
2018-06-28T05:57:56.573Z,91.20
2018-06-28T05:59:58.665Z,90.40
2018-06-28T06:02:00.807Z,90.50
2018-06-28T06:04:02.845Z,86.10
2018-06-28T06:06:04.873Z,88.40
2018-06-28T06:08:06.911Z,84.20
2018-06-28T06:10:08.948Z,81.40
2018-06-28T06:12:11.101Z,83.70
2018-06-28T06:14:13.117Z,85.30
2018-06-28T06:16:15.161Z,81.40
2018-06-28T06:18:17.222Z,81.60
2018-06-28T06:20:19.321Z,78.10
2018-06-28T06:22:21.318Z,79.70
2018-06-28T06:24:23.370Z,77.00
2018-06-28T06:26:25.400Z,78.60
2018-06-28T06:28:27.424Z,73.30
2018-06-28T06:30:29.494Z,69.90
2018-06-28T06:32:31.530Z,69.30
2018-06-28T06:34:33.589Z,70.50
2018-06-28T06:36:35.601Z,69.90
2018-06-28T06:38:37.665Z,69.90
2018-06-28T06:40:39.685Z,67.50
2018-06-28T06:42:41.692Z,71.40
2018-06-28T06:44:43.734Z,63.10
2018-06-28T06:46:45.969Z,68.00
2018-06-28T06:48:47.917Z,65.90
2018-06-28T06:50:49.980Z,58.20
2018-06-28T06:52:52.253Z,59.20
2018-06-28T06:54:54.281Z,59.50
2018-06-28T06:56:56.345Z,57.00
2018-06-28T06:58:58.404Z,56.00
2018-06-28T07:01:00.537Z,58.60
2018-06-28T07:03:02.725Z,54.30
2018-06-28T07:05:04.798Z,52.20
2018-06-28T07:07:06.829Z,63.10
2018-06-28T07:09:10.774Z,57.40
2018-06-28T07:11:12.977Z,54.40
2018-06-28T07:13:15.053Z,53.60
2018-06-28T07:15:17.099Z,51.60
2018-06-28T07:17:19.134Z,53.00
2018-06-28T07:19:21.173Z,54.40
2018-06-28T07:21:23.221Z,51.90
2018-06-28T07:25:30.964Z,56.20
2018-06-28T07:27:33.020Z,48.10
2018-06-28T07:29:35.061Z,51.20
2018-06-28T07:33:39.320Z,52.50
2018-06-28T07:35:41.282Z,51.80
2018-06-28T07:37:43.356Z,46.70
2018-06-28T07:39:45.410Z,44.70
2018-06-28T07:41:47.445Z,41.60
2018-06-28T07:43:49.517Z,41.70
2018-06-28T07:45:51.554Z,44.00
2018-06-28T07:47:53.620Z,39.90
2018-06-28T07:49:55.702Z,42.60
2018-06-28T07:51:57.766Z,42.50
2018-06-28T07:53:59.970Z,35.70
2018-06-28T07:56:01.983Z,38.70
2018-06-28T07:58:04.054Z,39.70
2018-06-28T08:00:06.740Z,36.00
2018-06-28T08:02:08.810Z,41.00
2018-06-28T08:04:10.908Z,34.20
2018-06-28T08:06:12.912Z,32.80
2018-06-28T08:08:14.965Z,33.40
2018-06-28T08:10:16.972Z,32.40
2018-06-28T08:12:19.017Z,31.50
2018-06-28T08:14:21.045Z,31.70
2018-06-28T08:16:23.053Z,29.00
2018-06-28T08:18:25.073Z,28.90
2018-06-28T08:20:27.102Z,29.40
2018-06-28T08:22:29.097Z,30.40
2018-06-28T08:24:31.096Z,30.10
2018-06-28T08:26:33.113Z,28.50
2018-06-28T08:28:35.138Z,29.90
2018-06-28T08:30:37.140Z,30.70
2018-06-28T08:32:39.168Z,24.70
2018-06-28T08:34:41.242Z,24.10
2018-06-28T08:36:43.293Z,24.20
2018-06-28T08:38:45.352Z,22.80
2018-06-28T08:40:47.356Z,22.30
2018-06-28T08:42:49.396Z,21.40
2018-06-28T08:44:51.417Z,21.70
2018-06-28T08:46:53.468Z,20.60
2018-06-28T08:48:58.832Z,21.00
2018-06-28T08:51:00.848Z,20.10
2018-06-28T08:53:02.879Z,19.60
2018-06-28T08:55:05.436Z,19.20
2018-06-28T08:57:07.469Z,17.30
2018-06-28T08:59:09.517Z,20.40
2018-06-28T09:01:11.585Z,18.50
2018-06-28T09:03:13.688Z,18.00
2018-06-28T09:05:15.732Z,17.90
2018-06-28T09:07:17.842Z,18.50
2018-06-28T09:09:19.876Z,19.00
2018-06-28T09:11:21.972Z,16.80
2018-06-28T09:13:24.033Z,18.10
2018-06-28T09:15:26.187Z,16.40
2018-06-28T09:17:28.178Z,16.90
2018-06-28T09:19:30.224Z,14.50
2018-06-28T09:21:32.264Z,14.00
2018-06-28T09:23:34.396Z,14.20
2018-06-28T09:25:36.481Z,16.60
2018-06-28T09:27:38.524Z,14.70
2018-06-28T09:29:40.574Z,14.10
2018-06-28T09:31:42.633Z,16.90
2018-06-28T09:33:44.801Z,16.60
2018-06-28T09:35:46.879Z,10.40
2018-06-28T09:37:48.933Z,14.30
2018-06-28T09:39:50.990Z,15.60
2018-06-28T09:41:53.037Z,12.90
2018-06-28T09:43:55.136Z,12.20
2018-06-28T09:45:57.194Z,11.40
2018-06-28T09:47:59.262Z,14.70
2018-06-28T09:50:01.312Z,13.10
2018-06-28T09:52:03.398Z,11.30
2018-06-28T09:54:05.470Z,12.90
2018-06-28T09:56:07.944Z,12.00
2018-06-28T09:58:10.030Z,10.10
2018-06-28T10:00:12.804Z,11.50
2018-06-28T10:02:14.846Z,10.40
2018-06-28T10:04:16.887Z,9.70
2018-06-28T10:06:18.943Z,9.70
2018-06-28T10:08:21.105Z,10.90
2018-06-28T10:10:23.160Z,11.60
2018-06-28T10:12:25.270Z,10.60
2018-06-28T10:14:27.345Z,9.70
2018-06-28T10:16:29.552Z,9.90
2018-06-28T10:18:31.606Z,9.10
2018-06-28T10:20:33.707Z,10.50
2018-06-28T10:22:35.770Z,10.00
2018-06-28T10:24:37.875Z,10.70
2018-06-28T10:26:39.941Z,9.00
2018-06-28T10:28:42.004Z,8.90
2018-06-28T10:30:44.060Z,8.40
2018-06-28T10:32:46.132Z,7.70
2018-06-28T10:34:48.205Z,9.60
2018-06-28T10:36:50.256Z,9.00
2018-06-28T10:38:52.316Z,9.20
2018-06-28T10:40:54.509Z,9.00
2018-06-28T10:42:56.509Z,9.20
2018-06-28T10:44:58.594Z,7.60
2018-06-28T10:47:00.653Z,7.70
2018-06-28T10:49:02.694Z,9.10
2018-06-28T10:51:04.921Z,8.00
2018-06-28T10:53:06.980Z,7.70
2018-06-28T10:55:09.044Z,7.20
2018-06-28T10:57:11.117Z,7.40
2018-06-28T10:59:13.190Z,7.70
2018-06-28T11:01:15.240Z,6.60
2018-06-28T11:03:17.284Z,8.70
2018-06-28T11:05:19.336Z,8.50
2018-06-28T11:07:21.423Z,6.70
2018-06-28T11:11:25.577Z,8.30
2018-06-28T11:13:27.608Z,5.80
2018-06-28T11:15:29.660Z,6.50
2018-06-28T11:17:31.703Z,6.60
2018-06-28T11:21:35.877Z,8.50
2018-06-28T11:23:37.940Z,7.70
2018-06-28T11:25:39.992Z,5.00
2018-06-28T11:27:42.163Z,6.20
2018-06-28T11:29:44.209Z,7.10
2018-06-28T11:31:46.318Z,6.80
2018-06-28T11:33:48.413Z,7.40
2018-06-28T11:35:50.512Z,7.20
2018-06-28T11:37:52.627Z,6.50
2018-06-28T11:39:54.777Z,5.20
2018-06-28T11:41:56.920Z,5.70
2018-06-28T11:43:59.072Z,5.00
2018-06-28T11:46:01.159Z,5.40
2018-06-28T11:48:03.220Z,3.60
2018-06-28T11:50:05.280Z,6.00
2018-06-28T11:52:07.383Z,6.70
2018-06-28T11:54:09.415Z,4.60
2018-06-28T11:58:13.701Z,3.00
2018-06-28T12:00:16.061Z,3.80
2018-06-28T12:02:18.129Z,3.50
2018-06-28T12:04:20.232Z,2.90
2018-06-28T12:06:22.320Z,2.90
2018-06-28T12:08:24.369Z,2.90
2018-06-28T12:12:28.584Z,2.70
2018-06-28T12:14:30.659Z,3.30
2018-06-28T12:16:32.741Z,3.60
2018-06-28T12:18:34.825Z,4.80
2018-06-28T12:20:36.896Z,5.00
2018-06-28T12:22:38.957Z,5.10
2018-06-28T12:24:41.041Z,5.40
2018-06-28T12:26:43.116Z,4.80
2018-06-28T12:28:45.187Z,5.60
2018-06-28T12:30:47.289Z,5.10
2018-06-28T12:32:49.342Z,4.80
2018-06-28T12:34:51.437Z,4.70
2018-06-28T12:36:53.533Z,5.60
2018-06-28T12:38:55.646Z,4.10
2018-06-28T12:40:58.021Z,4.00
2018-06-28T12:43:00.090Z,1.90
2018-06-28T12:45:02.163Z,2.20
2018-06-28T12:48:02.065Z,2.70
2018-06-28T12:50:04.761Z,2.80
2018-06-28T12:52:18.636Z,1.80
2018-06-28T12:54:20.800Z,2.50
2018-06-28T12:56:24.864Z,2.60
2018-06-28T12:58:26.980Z,1.00
2018-06-28T13:00:29.548Z,2.20
2018-06-28T13:02:31.624Z,3.80
2018-06-28T13:04:33.678Z,4.60
2018-06-28T13:06:35.780Z,4.30
2018-06-28T13:08:37.824Z,3.10
2018-06-28T13:10:39.921Z,2.60
2018-06-28T13:12:42.175Z,2.10
2018-06-28T13:14:44.266Z,3.00
2018-06-28T13:16:46.329Z,2.10
2018-06-28T13:18:48.819Z,2.10
2018-06-28T13:20:50.853Z,1.90
2018-06-28T13:22:52.952Z,1.00
2018-06-28T13:24:55.011Z,1.50
2018-06-28T13:26:57.060Z,2.50
2018-06-28T13:28:59.109Z,2.20
2018-06-28T13:31:01.174Z,1.00
2018-06-28T13:33:03.225Z,1.00
2018-06-28T13:35:05.289Z,1.40
2018-06-28T13:37:07.345Z,1.40
2018-06-28T13:39:09.505Z,4.70
2018-06-28T13:41:15.315Z,2.70
2018-06-28T13:43:17.407Z,3.00
2018-06-28T13:45:19.616Z,3.00
2018-06-28T13:47:21.723Z,1.70
2018-06-28T13:49:23.811Z,2.10
2018-06-28T13:51:25.861Z,2.70
2018-06-28T13:53:27.921Z,2.80
2018-06-28T13:55:29.977Z,2.10
2018-06-28T13:57:32.033Z,2.50
2018-06-28T13:59:34.081Z,3.90
2018-06-28T14:01:36.748Z,3.10
2018-06-28T14:03:38.796Z,3.00
2018-06-28T14:05:40.954Z,1.60
2018-06-28T14:07:42.996Z,1.90
2018-06-28T14:11:47.156Z,2.30
2018-06-28T14:13:49.220Z,3.30
2018-06-28T14:15:51.269Z,2.00
2018-06-28T14:17:53.344Z,1.80
2018-06-28T14:19:55.440Z,2.70
2018-06-28T14:21:57.498Z,1.40
2018-06-28T14:23:59.520Z,2.20
2018-06-28T14:26:01.621Z,2.20
2018-06-28T14:28:04.101Z,2.60
2018-06-28T14:30:08.203Z,2.70
2018-06-28T14:32:10.941Z,3.90
2018-06-28T14:34:13.717Z,4.20
2018-06-28T14:36:16.582Z,3.50
2018-06-28T14:38:19.385Z,4.70
2018-06-28T14:40:21.444Z,2.90
2018-06-28T14:42:23.512Z,2.90
2018-06-28T14:44:25.564Z,2.70
2018-06-28T14:46:27.645Z,2.60
2018-06-28T14:48:30.880Z,2.70
2018-06-28T14:50:32.980Z,2.60
2018-06-28T14:52:35.029Z,3.90
2018-06-28T14:54:37.069Z,3.50
2018-06-28T14:56:39.659Z,2.70
2018-06-28T14:58:42.024Z,3.50
2018-06-28T15:00:44.621Z,4.00
2018-06-28T15:02:46.992Z,4.30
2018-06-28T15:04:50.845Z,3.60
2018-06-28T15:06:53.257Z,4.80
2018-06-28T15:08:55.529Z,2.40
2018-06-28T15:10:57.742Z,4.60
2018-06-28T15:12:59.946Z,4.40
2018-06-28T15:15:02.125Z,3.80
2018-06-28T15:17:04.314Z,5.50
2018-06-28T15:19:06.462Z,3.90
2018-06-28T15:21:08.533Z,4.00
2018-06-28T15:23:10.608Z,3.60
2018-06-28T15:25:12.680Z,5.60
2018-06-28T15:27:14.797Z,2.70
2018-06-28T15:29:16.867Z,4.00
2018-06-28T15:31:18.975Z,3.90
2018-06-28T15:33:21.052Z,5.50
2018-06-28T15:35:23.118Z,5.00
2018-06-28T15:39:27.387Z,5.20
2018-06-28T15:41:29.445Z,4.90
2018-06-28T15:43:31.485Z,6.50
2018-06-28T15:45:33.538Z,4.10
2018-06-28T15:47:35.595Z,4.50
2018-06-28T15:49:37.775Z,4.10
2018-06-28T15:51:39.889Z,5.40
2018-06-28T15:53:41.967Z,6.30
2018-06-28T15:55:44.054Z,6.30
2018-06-28T15:57:46.148Z,5.60
2018-06-28T15:59:48.213Z,5.20
2018-06-28T16:01:50.275Z,5.80
2018-06-28T16:03:52.502Z,6.30
2018-06-28T16:05:54.556Z,5.80
2018-06-28T16:07:56.598Z,7.20
2018-06-28T16:09:58.689Z,7.20
2018-06-28T16:12:00.889Z,6.80
2018-06-28T16:14:03.033Z,7.50
2018-06-28T16:16:05.317Z,8.20
2018-06-28T16:18:07.425Z,10.50
2018-06-28T16:20:09.541Z,9.60
2018-06-28T16:22:11.652Z,6.60
2018-06-28T16:24:13.737Z,8.50
2018-06-28T16:26:15.845Z,7.90
2018-06-28T16:28:17.888Z,7.80
2018-06-28T16:30:19.979Z,8.30
2018-06-28T16:32:22.465Z,8.50
2018-06-28T16:34:24.609Z,7.70
2018-06-28T16:36:26.664Z,8.30
2018-06-28T16:38:28.749Z,9.20
2018-06-28T16:40:30.901Z,8.20
2018-06-28T16:42:33.061Z,9.10
2018-06-28T16:44:35.272Z,10.10
2018-06-28T16:46:37.403Z,7.70
2018-06-28T16:48:39.521Z,8.60
2018-06-28T16:50:41.637Z,7.70
2018-06-28T16:52:47.480Z,9.20
2018-06-28T16:54:49.554Z,7.90
2018-06-28T16:56:51.702Z,8.70
2018-06-28T16:58:53.871Z,8.30
2018-06-28T17:00:56.018Z,7.70
2018-06-28T17:02:58.084Z,7.70
2018-06-28T17:05:00.160Z,9.20
2018-06-28T17:07:03.144Z,8.20
2018-06-28T17:09:07.040Z,9.50
2018-06-28T17:11:09.177Z,7.70
2018-06-28T17:13:11.228Z,7.70
2018-06-28T17:15:13.288Z,8.30
2018-06-28T17:17:15.517Z,8.60
2018-06-28T17:21:23.389Z,8.90
2018-06-28T17:23:25.479Z,8.50
2018-06-28T17:25:27.591Z,8.30
2018-06-28T17:27:29.704Z,9.90
2018-06-28T17:29:31.929Z,9.10
2018-06-28T17:31:34.181Z,8.40
2018-06-28T17:33:41.565Z,8.90
2018-06-28T17:35:44.808Z,9.20
2018-06-28T17:37:46.948Z,9.20
2018-06-28T17:39:49.059Z,10.30
2018-06-28T17:41:51.163Z,9.30
2018-06-28T17:43:53.269Z,9.70
2018-06-28T17:45:55.324Z,9.00
2018-06-28T17:47:57.368Z,9.40
2018-06-28T17:49:59.445Z,10.10
2018-06-28T17:52:01.489Z,9.60
2018-06-28T17:54:03.529Z,11.10
2018-06-28T17:56:05.924Z,9.90
2018-06-28T17:58:07.980Z,9.70
2018-06-28T18:00:10.048Z,10.20
2018-06-28T18:02:12.113Z,9.40
2018-06-28T18:04:14.162Z,9.50
2018-06-28T18:06:16.384Z,9.00
2018-06-28T18:08:18.505Z,9.20
2018-06-28T18:10:20.638Z,10.10
2018-06-28T18:12:23.021Z,10.10
2018-06-28T18:14:25.057Z,9.30
2018-06-28T18:16:27.127Z,9.60
2018-06-28T18:18:29.173Z,9.50
2018-06-28T18:20:31.241Z,8.80
2018-06-28T18:22:34.316Z,10.00
2018-06-28T18:24:36.430Z,10.80
2018-06-28T18:26:38.576Z,8.80
2018-06-28T18:28:40.609Z,9.40
2018-06-28T18:30:42.684Z,8.50
2018-06-28T18:32:44.749Z,9.10
2018-06-28T18:34:46.797Z,10.20
2018-06-28T18:36:48.870Z,10.50
2018-06-28T18:38:50.986Z,9.70
2018-06-28T18:40:53.055Z,10.60
2018-06-28T18:42:55.125Z,9.10
2018-06-28T18:44:57.154Z,10.10
2018-06-28T18:46:59.232Z,10.70
2018-06-28T18:49:01.342Z,10.00
2018-06-28T18:51:03.457Z,10.00
2018-06-28T18:53:05.609Z,11.20
2018-06-28T18:55:07.666Z,11.10
2018-06-28T18:57:09.792Z,10.10
2018-06-28T18:59:11.872Z,10.60
2018-06-28T19:01:13.908Z,10.20
2018-06-28T19:03:15.988Z,10.40
2018-06-28T19:05:18.287Z,10.90
2018-06-28T19:07:20.364Z,10.40
2018-06-28T19:09:27.031Z,10.20
2018-06-28T19:13:31.273Z,11.00
2018-06-28T19:16:41.444Z,12.10
2018-06-28T19:18:43.529Z,11.60
2018-06-28T19:21:52.053Z,11.50
2018-06-28T19:23:54.100Z,11.30
2018-06-28T19:25:56.208Z,12.90
2018-06-28T19:27:58.256Z,12.20
2018-06-28T19:30:06.189Z,12.70
2018-06-28T19:32:13.996Z,12.30
2018-06-28T19:34:16.056Z,12.30
2018-06-28T19:36:18.214Z,12.40
2018-06-28T19:38:20.285Z,13.20
2018-06-28T19:40:28.150Z,14.40
2018-06-28T19:42:35.915Z,12.50
2018-06-28T19:44:37.985Z,12.70
2018-06-28T19:46:40.026Z,13.50
2018-06-28T19:48:42.134Z,13.10
2018-06-28T19:50:49.870Z,11.90
2018-06-28T19:52:54.018Z,11.40
2018-06-28T19:54:56.153Z,12.40
2018-06-28T19:59:04.735Z,12.80
2018-06-28T20:01:12.549Z,12.90
2018-06-28T20:03:20.389Z,13.30
2018-06-28T20:05:22.435Z,12.70
2018-06-28T20:07:24.490Z,13.70
2018-06-28T20:09:26.548Z,12.60
2018-06-28T20:11:28.680Z,12.80
2018-06-28T20:13:36.375Z,12.60
2018-06-28T20:15:50.623Z,12.70
2018-06-28T20:18:00.573Z,12.60
2018-06-28T20:20:08.373Z,13.40
2018-06-28T20:24:12.549Z,13.40
2018-06-28T20:26:20.487Z,13.90
2018-06-28T20:28:28.245Z,14.30
2018-06-28T20:30:36.062Z,13.80
2018-06-28T20:32:43.763Z,14.10
2018-06-28T20:34:45.832Z,14.50
2018-06-28T20:36:47.873Z,14.00
2018-06-28T20:38:49.928Z,15.80
2018-06-28T20:40:52.056Z,14.90
2018-06-28T20:42:54.110Z,15.20
2018-06-28T20:44:56.100Z,15.60
2018-06-28T20:46:58.098Z,15.00
2018-06-28T20:49:00.209Z,15.60
2018-06-28T20:51:02.426Z,15.30
2018-06-28T20:53:05.576Z,14.70
2018-06-28T20:55:07.616Z,15.30
2018-06-28T20:57:09.676Z,15.80
2018-06-28T20:59:11.723Z,16.20
2018-06-28T21:01:13.780Z,16.00
2018-06-28T21:03:15.922Z,16.10
2018-06-28T21:05:17.976Z,17.00
2018-06-28T21:07:19.984Z,16.60
2018-06-28T21:09:22.035Z,15.40
2018-06-28T21:11:24.097Z,16.10
2018-06-28T21:13:26.136Z,16.00
2018-06-28T21:15:28.165Z,15.60
2018-06-28T21:17:30.188Z,17.20
2018-06-28T21:19:32.226Z,17.80
2018-06-28T21:21:34.264Z,16.80
2018-06-28T21:23:36.305Z,17.80
2018-06-28T21:25:38.414Z,17.20
2018-06-28T21:27:40.435Z,20.80
2018-06-28T21:29:42.628Z,24.40
2018-06-28T21:31:44.701Z,20.20
2018-06-28T21:33:46.764Z,20.00
2018-06-28T21:35:48.857Z,24.90
2018-06-28T21:37:50.912Z,24.60
2018-06-28T21:39:53.180Z,22.80
2018-06-28T21:41:55.212Z,21.30
2018-06-28T21:43:57.224Z,20.60
2018-06-28T21:45:59.268Z,23.10
2018-06-28T21:48:01.308Z,21.70
2018-06-28T21:50:03.352Z,20.30
2018-06-28T21:52:05.394Z,20.80
2018-06-28T21:54:07.428Z,20.90
2018-06-28T21:56:09.465Z,20.40
2018-06-28T21:58:11.530Z,22.60
2018-06-28T22:00:27.732Z,24.50
2018-06-28T22:02:29.745Z,23.50
2018-06-28T22:04:31.752Z,26.20
2018-06-28T22:06:33.772Z,24.40
2018-06-28T22:08:35.800Z,27.20
2018-06-28T22:10:37.842Z,27.40
2018-06-28T22:12:39.868Z,25.50
2018-06-28T22:14:41.919Z,28.40
2018-06-28T22:16:43.976Z,32.10
2018-06-28T22:18:46.044Z,31.20
2018-06-28T22:20:48.121Z,30.10
2018-06-28T22:22:50.240Z,29.70
2018-06-28T22:24:52.307Z,31.10
2018-06-28T22:26:54.360Z,32.80
2018-06-28T22:28:56.390Z,35.80
2018-06-28T22:30:58.428Z,33.60
2018-06-28T22:33:00.502Z,37.60
2018-06-28T22:35:02.523Z,31.30
2018-06-28T22:37:04.583Z,35.60
2018-06-28T22:39:08.547Z,30.10
2018-06-28T22:41:10.564Z,33.20
2018-06-28T22:43:12.602Z,35.80
2018-06-28T22:45:14.595Z,34.90
2018-06-28T22:47:16.612Z,40.00
2018-06-28T22:49:18.652Z,42.00
2018-06-28T22:51:20.727Z,45.40
2018-06-28T22:53:22.702Z,42.40
2018-06-28T22:55:24.781Z,36.20
2018-06-28T22:57:26.811Z,40.40
2018-06-28T22:59:28.869Z,38.00
2018-06-28T23:01:30.909Z,40.30
2018-06-28T23:03:32.956Z,39.40
2018-06-28T23:05:35.004Z,42.90
2018-06-28T23:07:37.023Z,41.80
2018-06-28T23:09:39.052Z,40.60
2018-06-28T23:11:41.064Z,43.30
2018-06-28T23:13:43.479Z,43.40
2018-06-28T23:15:45.574Z,42.10
2018-06-28T23:17:47.628Z,46.60
2018-06-28T23:19:49.620Z,46.00
2018-06-28T23:21:51.652Z,43.00
2018-06-28T23:23:53.660Z,40.30
2018-06-28T23:25:55.700Z,41.50
2018-06-28T23:27:57.716Z,42.30
2018-06-28T23:29:59.747Z,43.60
2018-06-28T23:32:01.793Z,47.10
2018-06-28T23:34:03.845Z,44.00
2018-06-28T23:36:05.885Z,44.10
2018-06-28T23:38:07.904Z,45.20
2018-06-28T23:40:09.949Z,50.30
2018-06-28T23:44:14.083Z,48.50
2018-06-28T23:46:16.107Z,49.40
2018-06-28T23:48:18.111Z,48.70
2018-06-28T23:50:20.129Z,48.20
2018-06-28T23:52:22.192Z,46.90
2018-06-28T23:54:24.212Z,49.30
2018-06-28T23:56:26.232Z,50.40
2018-06-28T23:58:28.237Z,54.80
